createdAt,value
2023-05-12T00:00:31.247Z,100180.63
2023-05-12T00:03:33.654Z,100185.47
2023-05-12T00:06:36.017Z,100185.47
2023-05-12T00:09:38.320Z,100173.88
2023-05-12T00:12:40.756Z,100169.31
2023-05-12T00:15:43.066Z,100183.84
2023-05-12T00:18:45.684Z,100178.06
2023-05-12T00:21:48.092Z,100176.38
2023-05-12T00:24:50.403Z,100187.31
2023-05-12T00:27:52.771Z,100176.47
2023-05-12T00:30:55.165Z,100182.13
2023-05-12T00:33:57.453Z,100176.09
2023-05-12T00:36:59.682Z,100174.78
2023-05-12T00:40:01.993Z,100167.50
2023-05-12T00:43:04.272Z,100173.53
2023-05-12T00:46:07.303Z,100165.34
2023-05-12T00:49:09.644Z,100163.91
2023-05-12T00:52:12.126Z,100158.97
2023-05-12T00:55:14.454Z,100155.03
2023-05-12T00:58:16.752Z,100147.69
2023-05-12T01:01:19.143Z,100146.88
2023-05-12T01:04:24.067Z,100146.44
2023-05-12T01:07:28.064Z,100167.03
2023-05-12T01:10:30.592Z,100143.41
2023-05-12T01:13:32.934Z,100152.25
2023-05-12T01:16:51.835Z,100153.94
2023-05-12T01:19:57.338Z,100164.16
2023-05-12T01:22:59.643Z,100156.78
2023-05-12T01:26:07.018Z,100171.50
2023-05-12T01:29:09.586Z,100165.34
2023-05-12T01:32:12.784Z,100166.06
2023-05-12T01:35:15.752Z,100161.94
2023-05-12T01:38:24.157Z,100155.09
2023-05-12T01:41:26.902Z,100170.50
2023-05-12T01:44:29.472Z,100173.09
2023-05-12T01:47:31.912Z,100172.22
2023-05-12T01:50:42.840Z,100188.97
2023-05-12T01:53:50.331Z,100180.81
2023-05-12T01:56:52.672Z,100185.56
2023-05-12T01:59:55.580Z,100183.59
2023-05-12T02:02:58.549Z,100183.78
2023-05-12T02:06:01.017Z,100183.28
2023-05-12T02:09:03.688Z,100189.16
2023-05-12T02:12:06.842Z,100178.13
2023-05-12T02:15:09.612Z,100184.28
2023-05-12T02:18:15.343Z,100183.22
2023-05-12T02:21:17.889Z,100181.69
2023-05-12T02:24:21.354Z,100192.41
2023-05-12T02:27:23.767Z,100192.53
2023-05-12T02:30:26.040Z,100193.78
2023-05-12T02:33:28.453Z,100187.88
2023-05-12T02:36:30.798Z,100186.88
2023-05-12T02:39:33.074Z,100187.69
2023-05-12T02:42:36.316Z,100197.44
2023-05-12T02:45:39.057Z,100193.84
2023-05-12T02:48:41.381Z,100189.47
2023-05-12T02:51:44.485Z,100194.59
2023-05-12T02:54:46.781Z,100199.88
2023-05-12T02:57:49.297Z,100196.06
2023-05-12T03:00:59.860Z,100194.84
2023-05-12T03:04:09.629Z,100197.75
2023-05-12T03:07:11.960Z,100198.06
2023-05-12T03:10:14.364Z,100205.63
2023-05-12T03:13:16.646Z,100211.06
2023-05-12T03:16:19.727Z,100182.19
2023-05-12T03:19:22.512Z,100203.53
2023-05-12T03:22:25.812Z,100207.03
2023-05-12T03:25:28.239Z,100202.06
2023-05-12T03:28:30.584Z,100202.47
2023-05-12T03:31:33.090Z,100216.34
2023-05-12T03:34:35.721Z,100204.81
2023-05-12T03:37:38.181Z,100199.88
2023-05-12T03:40:41.860Z,100206.19
2023-05-12T03:43:44.458Z,100205.38
2023-05-12T03:46:47.835Z,100205.06
2023-05-12T03:49:50.244Z,100214.97
2023-05-12T03:52:56.110Z,100206.09
2023-05-12T03:55:58.538Z,100208.28
2023-05-12T03:59:01.798Z,100206.38
2023-05-12T04:02:04.487Z,100203.97
2023-05-12T04:05:08.294Z,100217.84
2023-05-12T04:08:10.898Z,100232.41
2023-05-12T04:11:14.154Z,100227.78
2023-05-12T04:14:17.546Z,100207.84
2023-05-12T04:17:19.913Z,100216.00
2023-05-12T04:20:22.501Z,100218.53
2023-05-12T04:23:25.116Z,100215.53
2023-05-12T04:26:27.629Z,100225.84
2023-05-12T04:29:30.057Z,100230.22
2023-05-12T04:32:32.592Z,100238.94
2023-05-12T04:35:36.231Z,100223.13
2023-05-12T04:38:40.649Z,100219.91
2023-05-12T04:41:43.808Z,100231.56
2023-05-12T04:44:46.787Z,100237.53
2023-05-12T04:47:49.716Z,100231.16
2023-05-12T04:50:52.932Z,100225.31
2023-05-12T04:53:55.323Z,100234.22
2023-05-12T04:56:57.864Z,100230.00
2023-05-12T05:00:00.502Z,100239.34
2023-05-12T05:03:04.095Z,100215.44
2023-05-12T05:06:06.941Z,100240.47
2023-05-12T05:09:09.309Z,100243.34
2023-05-12T05:12:11.986Z,100226.75
2023-05-12T05:15:14.563Z,100238.84
2023-05-12T05:18:17.145Z,100217.53
2023-05-12T05:21:21.052Z,100223.22
2023-05-12T05:24:24.536Z,100235.63
2023-05-12T05:27:27.032Z,100231.75
2023-05-12T05:30:29.539Z,100242.59
2023-05-12T05:33:32.439Z,100233.06
2023-05-12T05:36:35.491Z,100249.25
2023-05-12T05:39:38.154Z,100260.13
2023-05-12T05:42:40.586Z,100249.72
2023-05-12T05:45:43.669Z,100247.09
2023-05-12T05:48:46.125Z,100254.75
2023-05-12T05:51:52.154Z,100245.66
2023-05-12T05:54:54.649Z,100256.31
2023-05-12T05:57:58.362Z,100260.50
2023-05-12T06:01:01.691Z,100259.78
2023-05-12T06:04:04.234Z,100259.63
2023-05-12T06:07:06.746Z,100265.47
2023-05-12T06:10:09.144Z,100264.84
2023-05-12T06:13:12.019Z,100253.91
2023-05-12T06:16:14.386Z,100261.84
2023-05-12T06:19:16.656Z,100274.88
2023-05-12T06:22:18.969Z,100255.75
2023-05-12T06:25:21.558Z,100257.84
2023-05-12T06:28:24.073Z,100255.53
2023-05-12T06:31:27.541Z,100272.88
2023-05-12T06:34:30.036Z,100265.63
2023-05-12T06:37:33.407Z,100261.03
2023-05-12T06:40:35.709Z,100256.88
2023-05-12T06:43:38.032Z,100269.09
2023-05-12T06:46:40.431Z,100267.75
2023-05-12T06:49:42.791Z,100254.78
2023-05-12T06:52:45.159Z,100265.72
2023-05-12T06:55:47.672Z,100264.59
2023-05-12T06:58:50.339Z,100264.28
2023-05-12T07:01:52.812Z,100253.03
2023-05-12T07:04:55.551Z,100269.56
2023-05-12T07:07:57.935Z,100260.94
2023-05-12T07:11:01.114Z,100271.28
2023-05-12T07:14:03.447Z,100263.88
2023-05-12T07:17:06.411Z,100251.94
2023-05-12T07:20:09.946Z,100273.91
2023-05-12T07:23:12.881Z,100257.50
2023-05-12T07:26:16.032Z,100263.41
2023-05-12T07:29:18.429Z,100260.88
2023-05-12T07:32:20.887Z,100260.16
2023-05-12T07:35:23.432Z,100268.44
2023-05-12T07:38:25.749Z,100265.41
2023-05-12T07:41:27.976Z,100268.06
2023-05-12T07:44:31.169Z,100271.03
2023-05-12T07:47:33.497Z,100254.53
2023-05-12T07:50:35.871Z,100269.59
2023-05-12T07:53:38.259Z,100262.66
2023-05-12T07:56:40.627Z,100278.53
2023-05-12T07:59:43.111Z,100256.63
2023-05-12T08:02:48.110Z,100261.00
2023-05-12T08:05:50.613Z,100272.84
2023-05-12T08:08:53.537Z,100276.59
2023-05-12T08:11:55.832Z,100271.44
2023-05-12T08:14:58.312Z,100270.75
2023-05-12T08:18:00.666Z,100268.19
2023-05-12T08:21:03.044Z,100272.34
2023-05-12T08:24:05.305Z,100290.16
2023-05-12T08:27:07.564Z,100286.19
2023-05-12T08:30:10.485Z,100279.03
2023-05-12T08:33:13.149Z,100284.44
2023-05-12T08:36:15.704Z,100273.69
2023-05-12T08:39:17.989Z,100270.47
2023-05-12T08:42:55.780Z,100293.91
2023-05-12T08:45:58.564Z,100280.06
2023-05-12T08:49:04.779Z,100286.41
2023-05-12T08:52:08.252Z,100298.75
2023-05-12T08:55:11.120Z,100293.41
2023-05-12T08:58:14.335Z,100302.44
2023-05-12T09:01:17.577Z,100305.56
2023-05-12T09:04:20.308Z,100294.13
2023-05-12T09:07:24.648Z,100304.00
2023-05-12T09:10:34.910Z,100321.84
2023-05-12T09:13:56.354Z,100323.28
2023-05-12T09:17:03.845Z,100334.03
2023-05-12T09:20:20.617Z,100335.19
2023-05-12T09:23:33.027Z,100331.06
2023-05-12T09:26:49.643Z,100348.13
2023-05-12T09:29:59.134Z,100339.84
2023-05-12T09:33:10.194Z,100351.44
2023-05-12T09:36:23.285Z,100355.94
2023-05-12T09:39:25.921Z,100329.63
2023-05-12T09:42:41.646Z,100348.63
2023-05-12T09:45:44.425Z,100356.69
2023-05-12T09:48:47.732Z,100356.72
2023-05-12T09:51:56.045Z,100360.63
2023-05-12T09:55:13.295Z,100363.72
2023-05-12T09:58:17.911Z,100362.34
2023-05-12T10:01:23.867Z,100364.88
2023-05-12T10:04:28.041Z,100366.81
2023-05-12T10:07:31.626Z,100366.16
2023-05-12T10:10:34.300Z,100351.53
2023-05-12T10:13:36.850Z,100361.03
2023-05-12T10:16:41.205Z,100353.81
2023-05-12T10:19:44.636Z,100352.53
2023-05-12T10:22:49.320Z,100362.28
2023-05-12T10:30:14.429Z,100342.06
2023-05-12T10:33:16.804Z,100350.59
2023-05-12T10:36:19.808Z,100352.53
2023-05-12T10:39:29.029Z,100343.78
2023-05-12T10:42:38.822Z,100355.44
2023-05-12T10:45:41.765Z,100340.44
2023-05-12T10:48:55.422Z,100337.88
2023-05-12T10:52:00.948Z,100358.94
2023-05-12T10:55:04.732Z,100360.97
2023-05-12T10:58:13.651Z,100363.03
2023-05-12T11:01:25.170Z,100363.16
2023-05-12T11:04:44.501Z,100362.31
2023-05-12T11:07:50.078Z,100365.28
2023-05-12T11:10:54.833Z,100325.34
2023-05-12T11:13:58.291Z,100331.38
2023-05-12T11:17:01.088Z,100339.56
2023-05-12T11:20:03.646Z,100336.56
2023-05-12T11:23:06.942Z,100346.84
2023-05-12T11:26:19.944Z,100336.94
2023-05-12T11:29:22.493Z,100355.09
2023-05-12T11:32:24.966Z,100355.03
2023-05-12T11:35:30.925Z,100354.78
2023-05-12T11:38:33.264Z,100335.25
2023-05-12T11:41:35.509Z,100349.75
2023-05-12T11:44:46.856Z,100347.56
2023-05-12T11:47:49.258Z,100353.91
2023-05-12T11:50:51.635Z,100348.94
2023-05-12T11:53:54.516Z,100350.31
2023-05-12T11:56:57.909Z,100356.69
2023-05-12T12:00:02.912Z,100356.84
2023-05-12T12:03:09.161Z,100363.22
2023-05-12T12:06:11.772Z,100357.91
2023-05-12T12:09:14.193Z,100363.66
2023-05-12T12:12:16.810Z,100359.75
2023-05-12T12:15:19.443Z,100354.81
2023-05-12T12:18:21.872Z,100352.97
2023-05-12T12:21:25.424Z,100370.56
2023-05-12T12:24:27.749Z,100364.28
2023-05-12T12:27:30.104Z,100352.50
2023-05-12T12:30:32.476Z,100365.22
2023-05-12T12:33:34.765Z,100365.22
2023-05-12T12:36:37.221Z,100369.19
2023-05-12T12:39:39.502Z,100379.81
2023-05-12T12:42:42.022Z,100380.22
2023-05-12T12:45:44.374Z,100374.56
2023-05-12T12:48:49.183Z,100364.34
2023-05-12T12:51:51.693Z,100364.91
2023-05-12T12:54:54.426Z,100364.63
2023-05-12T12:57:56.718Z,100368.56
2023-05-12T13:00:59.263Z,100360.69
2023-05-12T13:04:01.888Z,100374.03
2023-05-12T13:07:05.416Z,100361.34
2023-05-12T13:10:08.442Z,100366.47
2023-05-12T13:13:13.678Z,100369.50
2023-05-12T13:16:16.086Z,100367.97
2023-05-12T13:19:18.626Z,100366.47
2023-05-12T13:22:21.249Z,100368.56
2023-05-12T13:25:23.840Z,100367.31
2023-05-12T13:28:26.162Z,100364.84
2023-05-12T13:31:28.790Z,100362.22
2023-05-12T13:34:31.148Z,100364.03
2023-05-12T13:37:33.449Z,100363.84
2023-05-12T13:40:35.812Z,100363.69
2023-05-12T13:43:38.146Z,100371.06
2023-05-12T13:46:40.714Z,100360.41
2023-05-12T13:49:43.025Z,100372.38
2023-05-12T13:52:45.492Z,100363.09
2023-05-12T13:55:48.628Z,100357.00
2023-05-12T13:58:59.949Z,100367.22
2023-05-12T14:02:02.496Z,100360.78
2023-05-12T14:05:05.331Z,100359.91
2023-05-12T14:08:07.628Z,100372.94
2023-05-12T14:11:10.271Z,100370.34
2023-05-12T14:14:12.760Z,100363.75
2023-05-12T14:17:15.488Z,100379.38
2023-05-12T14:20:17.785Z,100388.91
2023-05-12T14:23:20.165Z,100392.50
2023-05-12T14:26:22.632Z,100396.16
2023-05-12T14:29:24.902Z,100400.84
2023-05-12T14:32:27.313Z,100388.13
2023-05-12T14:35:30.240Z,100394.78
2023-05-12T14:38:32.538Z,100409.41
2023-05-12T14:41:34.954Z,100409.53
2023-05-12T14:44:37.588Z,100407.81
2023-05-12T14:47:39.984Z,100421.06
2023-05-12T14:50:42.739Z,100429.13
2023-05-12T14:53:45.033Z,100431.78
2023-05-12T14:56:47.373Z,100433.41
2023-05-12T14:59:53.682Z,100421.53
2023-05-12T15:02:56.161Z,100425.88
2023-05-12T15:09:04.406Z,100429.59
2023-05-12T15:12:07.549Z,100432.03
2023-05-12T15:15:11.806Z,100434.91
2023-05-12T15:18:14.467Z,100432.69
2023-05-12T15:21:16.838Z,100436.00
2023-05-12T15:24:19.085Z,100437.44
2023-05-12T15:27:21.338Z,100440.50
2023-05-12T15:30:23.668Z,100444.09
2023-05-12T15:33:26.355Z,100441.63
2023-05-12T15:36:28.668Z,100452.94
2023-05-12T15:39:32.376Z,100441.47
2023-05-12T15:42:34.678Z,100444.22
2023-05-12T15:45:37.459Z,100437.72
2023-05-12T15:48:39.905Z,100431.78
2023-05-12T15:51:42.251Z,100434.03
2023-05-12T15:54:44.501Z,100435.41
2023-05-12T15:57:46.766Z,100425.75
2023-05-12T16:00:50.961Z,100440.88
2023-05-12T16:03:54.053Z,100442.63
2023-05-12T16:06:57.273Z,100424.94
2023-05-12T16:10:00.717Z,100420.53
2023-05-12T16:13:03.133Z,100436.56
2023-05-12T16:16:06.312Z,100444.00
2023-05-12T16:19:08.662Z,100421.94
2023-05-12T16:22:11.082Z,100439.13
2023-05-12T16:25:14.262Z,100432.75
2023-05-12T16:28:16.530Z,100431.09
2023-05-12T16:31:19.822Z,100445.16
2023-05-12T16:34:22.122Z,100428.19
2023-05-12T16:37:24.751Z,100428.78
2023-05-12T16:40:27.065Z,100452.84
2023-05-12T16:43:29.402Z,100454.94
2023-05-12T16:46:33.605Z,100455.38
2023-05-12T16:49:39.880Z,100466.34
2023-05-12T16:52:42.193Z,100458.44
2023-05-12T16:55:50.625Z,100430.88
2023-05-12T16:58:53.104Z,100430.53
2023-05-12T17:01:55.484Z,100451.59
2023-05-12T17:04:57.818Z,100447.41
2023-05-12T17:08:00.143Z,100465.53
2023-05-12T17:11:04.009Z,100470.56
2023-05-12T17:14:09.923Z,100447.72
2023-05-12T17:17:12.331Z,100444.13
2023-05-12T17:20:14.866Z,100462.88
2023-05-12T17:23:17.255Z,100454.72
2023-05-12T17:26:19.594Z,100475.06
2023-05-12T17:29:23.224Z,100471.59
2023-05-12T17:32:26.543Z,100486.34
2023-05-12T17:35:28.881Z,100476.94
2023-05-12T17:38:31.391Z,100490.19
2023-05-12T17:41:33.693Z,100486.44
2023-05-12T17:44:37.272Z,100502.03
2023-05-12T17:47:39.652Z,100494.00
2023-05-12T17:50:43.279Z,100489.38
2023-05-12T17:53:46.355Z,100505.63
2023-05-12T17:56:49.242Z,100497.09
2023-05-12T17:59:54.527Z,100483.38
2023-05-12T18:02:59.999Z,100497.31
2023-05-12T18:06:02.720Z,100505.25
2023-05-12T18:09:05.428Z,100489.28
2023-05-12T18:12:08.316Z,100513.97
2023-05-12T18:15:18.509Z,100503.72
2023-05-12T18:18:23.670Z,100486.84
2023-05-12T18:21:26.548Z,100503.19
2023-05-12T18:24:28.859Z,100484.75
2023-05-12T18:27:31.168Z,100483.50
2023-05-12T18:30:33.689Z,100465.22
2023-05-12T18:33:36.088Z,100504.41
2023-05-12T18:36:38.556Z,100510.06
2023-05-12T18:39:42.723Z,100496.34
2023-05-12T18:42:46.315Z,100523.75
2023-05-12T18:45:49.004Z,100489.28
2023-05-12T18:48:51.317Z,100494.97
2023-05-12T18:51:56.002Z,100523.38
2023-05-12T18:54:58.321Z,100518.03
2023-05-12T18:58:00.586Z,100523.44
2023-05-12T19:01:05.297Z,100518.00
2023-05-12T19:04:09.095Z,100523.13
2023-05-12T19:07:15.345Z,100526.81
2023-05-12T19:10:17.982Z,100542.63
2023-05-12T19:13:20.443Z,100530.63
2023-05-12T19:16:23.972Z,100545.09
2023-05-12T19:19:26.327Z,100547.28
2023-05-12T19:22:28.673Z,100532.63
2023-05-12T19:25:31.122Z,100525.47
2023-05-12T19:28:33.629Z,100533.19
2023-05-12T19:31:36.513Z,100544.47
2023-05-12T19:34:39.543Z,100529.53
2023-05-12T19:37:42.347Z,100538.66
2023-05-12T19:40:45.598Z,100557.38
2023-05-12T19:43:47.941Z,100533.91
2023-05-12T19:46:50.988Z,100523.00
2023-05-12T19:49:54.051Z,100537.84
2023-05-12T19:52:56.400Z,100555.91
2023-05-12T19:55:58.728Z,100549.38
2023-05-12T19:59:01.241Z,100546.47
2023-05-12T20:02:03.593Z,100550.44
2023-05-12T20:05:06.445Z,100553.69
2023-05-12T20:08:08.800Z,100535.06
2023-05-12T20:11:11.810Z,100567.50
2023-05-12T20:14:14.238Z,100559.94
2023-05-12T20:17:18.349Z,100542.72
2023-05-12T20:20:22.507Z,100544.47
2023-05-12T20:23:25.707Z,100538.75
2023-05-12T20:26:28.701Z,100559.47
2023-05-12T20:29:31.321Z,100557.19
2023-05-12T20:32:33.670Z,100537.97
2023-05-12T20:35:36.140Z,100561.13
2023-05-12T20:38:38.662Z,100547.50
2023-05-12T20:41:42.385Z,100535.63
2023-05-12T20:44:45.422Z,100529.69
2023-05-12T20:47:49.370Z,100561.50
2023-05-12T20:50:53.986Z,100553.59
2023-05-12T20:53:56.319Z,100537.72
2023-05-12T20:56:58.898Z,100561.13
2023-05-12T21:00:01.843Z,100559.28
2023-05-12T21:03:05.726Z,100561.72
2023-05-12T21:06:08.290Z,100561.59
2023-05-12T21:09:10.602Z,100540.38
2023-05-12T21:12:13.879Z,100562.63
2023-05-12T21:15:16.604Z,100547.66
2023-05-12T21:18:18.919Z,100562.75
2023-05-12T21:21:21.314Z,100551.38
2023-05-12T21:24:24.283Z,100579.97
2023-05-12T21:27:27.179Z,100560.22
2023-05-12T21:30:31.198Z,100581.16
2023-05-12T21:33:33.790Z,100547.16
2023-05-12T21:36:36.333Z,100563.91
2023-05-12T21:39:39.433Z,100556.22
2023-05-12T21:42:42.428Z,100558.31
2023-05-12T21:45:44.975Z,100583.19
2023-05-12T21:48:47.289Z,100571.66
2023-05-12T21:51:54.028Z,100570.16
2023-05-12T21:54:56.315Z,100554.34
2023-05-12T21:57:59.329Z,100565.63
2023-05-12T22:01:03.460Z,100565.41
2023-05-12T22:04:05.962Z,100560.88
2023-05-12T22:07:08.695Z,100550.16
2023-05-12T22:10:11.066Z,100557.72
2023-05-12T22:13:13.347Z,100563.81
2023-05-12T22:16:20.101Z,100572.53
2023-05-12T22:19:26.913Z,100546.91
2023-05-12T22:22:29.242Z,100546.97
2023-05-12T22:25:32.383Z,100566.13
2023-05-12T22:28:34.746Z,100559.38
2023-05-12T22:31:37.385Z,100554.47
2023-05-12T22:34:39.698Z,100558.47
2023-05-12T22:37:43.871Z,100565.88
2023-05-12T22:40:46.713Z,100551.50
2023-05-12T22:43:48.987Z,100554.38
2023-05-12T22:46:51.470Z,100561.94
2023-05-12T22:49:53.748Z,100559.16
2023-05-12T22:52:58.041Z,100539.06
2023-05-12T22:56:00.328Z,100554.34
2023-05-12T22:59:03.910Z,100561.69
2023-05-12T23:02:06.236Z,100553.19
2023-05-12T23:05:10.227Z,100544.25
2023-05-12T23:08:13.524Z,100530.38
2023-05-12T23:11:15.895Z,100554.94
2023-05-12T23:14:18.327Z,100533.41
2023-05-12T23:17:23.392Z,100553.75
2023-05-12T23:20:25.729Z,100542.38
2023-05-12T23:23:28.161Z,100537.56
2023-05-12T23:26:30.657Z,100524.63
2023-05-12T23:29:34.570Z,100541.63
2023-05-12T23:32:37.050Z,100532.06
2023-05-12T23:35:40.126Z,100523.94
2023-05-12T23:38:42.590Z,100539.94
2023-05-12T23:41:45.694Z,100536.16
2023-05-12T23:44:47.964Z,100535.31
2023-05-12T23:47:50.454Z,100529.41
2023-05-12T23:50:53.028Z,100540.22
2023-05-12T23:53:56.925Z,100539.97
2023-05-12T23:56:59.232Z,100513.91
